createdAt,value
2019-04-23T00:00:13.609Z,15.55
2019-04-23T00:03:08.569Z,15.52
2019-04-23T00:06:00.099Z,15.37
2019-04-23T00:08:50.127Z,15.37
2019-04-23T00:11:35.112Z,15.45
2019-04-23T00:14:29.870Z,15.43
2019-04-23T00:17:17.920Z,15.45
2019-04-23T00:20:04.561Z,15.38
2019-04-23T00:23:10.942Z,15.32
2019-04-23T00:26:17.776Z,15.17
2019-04-23T00:29:15.014Z,15.36
2019-04-23T00:31:53.282Z,15.25
2019-04-23T00:34:49.637Z,15.35
2019-04-23T00:37:31.347Z,15.48
2019-04-23T00:40:21.793Z,15.50
2019-04-23T00:43:17.362Z,15.43
2019-04-23T00:45:54.554Z,15.23
2019-04-23T00:48:59.161Z,15.12
2019-04-23T00:51:38.326Z,15.02
2019-04-23T00:54:30.767Z,15.10
2019-04-23T00:57:24.520Z,15.13
2019-04-23T01:00:19.272Z,14.93
2019-04-23T01:03:01.751Z,14.89
2019-04-23T01:05:47.062Z,15.02
2019-04-23T01:08:36.745Z,15.01
2019-04-23T01:11:27.652Z,14.86
2019-04-23T01:14:16.239Z,14.84
2019-04-23T01:17:08.485Z,14.87
2019-04-23T01:19:58.022Z,14.81
2019-04-23T01:22:29.390Z,14.69
2019-04-23T01:25:39.394Z,14.76
2019-04-23T01:28:42.422Z,14.78
2019-04-23T01:31:33.179Z,14.88
2019-04-23T01:34:28.012Z,14.87
2019-04-23T01:37:15.515Z,14.87
2019-04-23T01:45:31.580Z,14.84
2019-04-23T01:48:26.119Z,14.94
2019-04-23T01:51:20.455Z,14.88
2019-04-23T01:54:06.559Z,14.83
2019-04-23T01:56:56.660Z,14.80
2019-04-23T01:59:53.141Z,14.72
2019-04-23T02:02:46.082Z,14.72
2019-04-23T02:05:27.521Z,14.71
2019-04-23T02:08:13.959Z,14.67
2019-04-23T02:11:00.364Z,14.65
2019-04-23T02:13:54.770Z,14.56
2019-04-23T02:16:47.824Z,14.41
2019-04-23T02:19:38.748Z,14.51
2019-04-23T02:22:46.368Z,14.54
2019-04-23T02:25:39.623Z,14.46
2019-04-23T02:28:24.280Z,14.26
2019-04-23T02:31:25.281Z,14.14
2019-04-23T02:34:00.509Z,14.08
2019-04-23T02:45:16.880Z,14.00
2019-04-23T02:48:19.748Z,14.11
2019-04-23T02:50:57.819Z,13.93
2019-04-23T02:54:00.600Z,13.82
2019-04-23T02:59:42.349Z,13.73
2019-04-23T03:05:04.468Z,13.57
2019-04-23T03:08:10.208Z,13.75
2019-04-23T03:10:59.902Z,13.90
2019-04-23T03:19:58.839Z,13.79
2019-04-23T03:23:20.312Z,14.01
2019-04-23T03:26:11.149Z,14.04
2019-04-23T03:43:06.511Z,14.15
2019-04-23T03:46:00.898Z,14.00
2019-04-23T03:48:41.753Z,13.97
2019-04-23T03:51:31.367Z,14.08
2019-04-23T03:54:28.406Z,13.96
2019-04-23T03:57:15.532Z,14.03
2019-04-23T04:00:13.165Z,14.04
2019-04-23T04:05:37.179Z,14.14
2019-04-23T04:14:12.131Z,14.12
2019-04-23T04:16:49.162Z,13.96
2019-04-23T04:19:44.849Z,14.01
2019-04-23T04:22:37.392Z,14.14
2019-04-23T04:25:26.041Z,14.01
2019-04-23T04:39:26.522Z,14.08
2019-04-23T04:42:12.432Z,13.96
2019-04-23T04:45:16.737Z,14.03
2019-04-23T04:47:45.621Z,14.00
2019-04-23T04:51:00.410Z,13.83
2019-04-23T04:56:30.295Z,13.81
2019-04-23T04:59:08.768Z,13.82
2019-04-23T05:02:09.799Z,14.05
2019-04-23T05:10:41.339Z,14.00
2019-04-23T05:13:33.776Z,14.01
2019-04-23T05:27:28.942Z,14.15
2019-04-23T05:33:11.853Z,14.13
2019-04-23T05:38:52.935Z,14.30
2019-04-23T05:41:38.527Z,14.19
2019-04-23T05:44:29.969Z,14.32
2019-04-23T05:47:17.111Z,14.35
2019-04-23T05:50:15.541Z,14.40
2019-04-23T05:52:57.753Z,14.27
2019-04-23T05:55:43.032Z,14.36
2019-04-23T06:04:19.116Z,14.58
2019-04-23T06:09:59.199Z,14.64
2019-04-23T06:12:47.212Z,14.73
2019-04-23T06:15:36.966Z,14.79
2019-04-23T06:18:34.760Z,14.97
2019-04-23T06:21:31.281Z,15.07
2019-04-23T06:24:16.995Z,15.15
2019-04-23T06:27:00.977Z,15.32
2019-04-23T06:29:43.316Z,15.40
2019-04-23T06:32:41.351Z,15.46
2019-04-23T06:35:32.012Z,15.61
2019-04-23T06:41:09.877Z,15.86
2019-04-23T06:44:14.360Z,16.06
2019-04-23T06:47:00.307Z,16.16
2019-04-23T06:49:46.842Z,16.52
2019-04-23T06:52:26.547Z,16.88
2019-04-23T06:55:26.606Z,17.18
2019-04-23T06:58:24.134Z,17.46
2019-04-23T07:01:01.981Z,17.38
2019-04-23T07:03:50.690Z,17.67
2019-04-23T07:07:21.603Z,17.97
2019-04-23T07:09:35.249Z,18.23
2019-04-23T07:12:23.927Z,18.20
2019-04-23T07:15:16.405Z,18.26
2019-04-23T07:18:00.661Z,18.34
2019-04-23T07:20:51.195Z,18.36
2019-04-23T07:23:45.629Z,18.39
2019-04-23T07:29:16.021Z,18.03
2019-04-23T07:32:05.410Z,17.93
2019-04-23T07:35:00.979Z,18.08
2019-04-23T07:37:49.957Z,18.20
2019-04-23T07:40:57.418Z,18.03
2019-04-23T07:43:40.418Z,17.99
2019-04-23T07:46:40.753Z,18.14
2019-04-23T07:49:26.555Z,18.40
2019-04-23T07:52:20.125Z,18.61
2019-04-23T07:58:01.981Z,19.53
2019-04-23T08:03:39.578Z,20.36
2019-04-23T08:06:19.279Z,20.29
2019-04-23T08:09:09.123Z,20.89
2019-04-23T08:11:56.657Z,21.35
2019-04-23T08:14:56.601Z,21.53
2019-04-23T08:17:37.467Z,21.97
2019-04-23T08:20:30.254Z,22.17
2019-04-23T08:23:25.782Z,22.67
2019-04-23T08:26:50.239Z,22.84
2019-04-23T08:29:21.648Z,22.98
2019-04-23T08:32:16.828Z,23.18
2019-04-23T08:35:03.157Z,22.60
2019-04-23T08:38:04.561Z,22.75
2019-04-23T08:40:43.191Z,23.00
2019-04-23T08:43:42.858Z,23.44
2019-04-23T08:47:10.342Z,23.88
2019-04-23T08:52:32.597Z,24.27
2019-04-23T08:58:15.594Z,24.15
2019-04-23T09:01:07.769Z,23.35
2019-04-23T09:03:47.185Z,22.73
2019-04-23T09:06:37.081Z,22.74
2019-04-23T09:09:37.953Z,22.45
2019-04-23T09:12:23.980Z,22.29
2019-04-23T09:15:15.355Z,22.29
2019-04-23T09:18:03.013Z,22.11
2019-04-23T09:20:44.528Z,21.73
2019-04-23T09:23:45.144Z,21.47
2019-04-23T09:26:25.957Z,21.42
2019-04-23T09:29:19.809Z,21.29
2019-04-23T09:32:23.912Z,21.25
2019-04-23T09:35:29.287Z,21.28
2019-04-23T09:38:44.618Z,21.34
2019-04-23T09:41:39.549Z,21.28
2019-04-23T09:45:00.047Z,21.22
2019-04-23T09:48:18.228Z,21.27
2019-04-23T09:53:57.689Z,21.38
2019-04-23T09:59:31.029Z,21.81
2019-04-23T10:02:08.369Z,21.97
2019-04-23T10:04:52.951Z,22.18
2019-04-23T10:07:40.505Z,22.07
2019-04-23T10:10:16.702Z,22.21
2019-04-23T10:13:06.012Z,22.30
2019-04-23T10:15:55.429Z,22.38
2019-04-23T10:18:42.836Z,22.50
2019-04-23T10:21:31.177Z,22.66
2019-04-23T10:24:19.345Z,22.93
2019-04-23T10:27:08.192Z,23.03
2019-04-23T10:29:56.414Z,23.33
2019-04-23T10:32:45.206Z,23.48
2019-04-23T10:35:43.240Z,23.67
2019-04-23T10:38:22.571Z,23.94
2019-04-23T10:41:12.019Z,24.19
2019-04-23T10:44:09.038Z,24.33
2019-04-23T10:47:45.178Z,23.97
2019-04-23T10:50:51.481Z,24.01
2019-04-23T10:56:44.830Z,24.01
2019-04-23T10:59:38.966Z,23.96
2019-04-23T11:05:15.859Z,24.34
2019-04-23T11:08:02.354Z,24.11
2019-04-23T11:10:58.955Z,24.44
2019-04-23T11:13:53.034Z,24.50
2019-04-23T11:16:56.696Z,24.68
2019-04-23T11:19:40.427Z,24.50
2019-04-23T11:22:38.919Z,24.42
2019-04-23T11:25:20.492Z,24.70
2019-04-23T11:28:03.210Z,24.62
2019-04-23T11:33:46.377Z,24.74
2019-04-23T11:39:28.871Z,24.62
2019-04-23T11:42:11.538Z,24.24
2019-04-23T11:51:07.234Z,24.11
2019-04-23T11:53:35.095Z,24.08
2019-04-23T11:56:51.516Z,23.99
2019-04-23T11:59:07.545Z,23.88
2019-04-23T12:05:32.330Z,23.95
2019-04-23T12:08:50.189Z,24.23
2019-04-23T12:11:53.472Z,24.43
2019-04-23T12:20:28.642Z,25.24
2019-04-23T12:23:08.973Z,25.31
2019-04-23T12:25:47.600Z,25.43
2019-04-23T12:28:40.211Z,25.67
2019-04-23T12:31:32.729Z,25.68
2019-04-23T12:34:25.758Z,25.68
2019-04-23T12:37:04.131Z,25.81
2019-04-23T12:40:07.068Z,26.06
2019-04-23T12:48:41.312Z,26.31
2019-04-23T12:51:26.590Z,26.07
2019-04-23T12:54:07.682Z,25.87
2019-04-23T12:57:20.761Z,25.92
2019-04-23T12:59:44.337Z,25.80
2019-04-23T13:08:26.875Z,25.69
2019-04-23T13:11:07.946Z,25.70
2019-04-23T13:13:51.922Z,25.57
2019-04-23T13:16:44.663Z,25.55
2019-04-23T13:19:40.156Z,25.56
2019-04-23T13:22:27.881Z,25.51
2019-04-23T13:25:34.570Z,25.18
2019-04-23T13:28:21.723Z,25.16
2019-04-23T13:31:08.596Z,25.19
2019-04-23T13:33:49.970Z,24.63
2019-04-23T13:36:45.364Z,24.38
2019-04-23T13:39:40.401Z,24.49
2019-04-23T13:42:33.695Z,24.45
2019-04-23T13:45:35.668Z,24.42
2019-04-23T13:48:06.144Z,24.34
2019-04-23T13:53:53.390Z,24.51
2019-04-23T13:59:30.555Z,24.73
2019-04-23T14:02:23.528Z,24.34
2019-04-23T14:05:21.661Z,23.98
2019-04-23T14:08:13.830Z,24.08
2019-04-23T14:10:51.911Z,24.20
2019-04-23T14:19:16.282Z,24.17
2019-04-23T14:28:06.747Z,24.33
2019-04-23T14:30:56.005Z,24.30
2019-04-23T14:36:27.026Z,24.35
2019-04-23T14:39:24.441Z,24.32
2019-04-23T14:42:21.717Z,24.14
2019-04-23T14:45:13.955Z,23.84
2019-04-23T14:53:30.241Z,23.69
2019-04-23T14:56:20.134Z,23.84
2019-04-23T15:01:58.237Z,23.76
2019-04-23T15:04:48.220Z,23.77
2019-04-23T15:07:37.595Z,23.72
2019-04-23T15:13:16.897Z,23.74
2019-04-23T15:19:22.073Z,23.72
2019-04-23T15:22:04.795Z,23.74
2019-04-23T15:24:50.147Z,23.84
2019-04-23T15:28:05.317Z,23.88
2019-04-23T15:30:17.672Z,23.72
2019-04-23T15:36:23.914Z,23.63
2019-04-23T15:39:08.813Z,23.72
2019-04-23T15:41:49.043Z,23.73
2019-04-23T15:44:21.823Z,23.55
2019-04-23T15:50:17.577Z,23.60
2019-04-23T15:52:56.457Z,23.52
2019-04-23T15:55:50.202Z,23.42
2019-04-23T15:58:48.545Z,23.28
2019-04-23T16:01:29.346Z,23.21
2019-04-23T16:03:49.688Z,23.09
2019-04-23T16:06:38.876Z,22.99
2019-04-23T16:10:04.351Z,22.88
2019-04-23T16:12:51.642Z,22.74
2019-04-23T16:15:37.320Z,22.61
2019-04-23T16:18:37.453Z,22.52
2019-04-23T16:21:31.877Z,22.44
2019-04-23T16:24:18.035Z,22.37
2019-04-23T16:30:00.227Z,22.54
2019-04-23T16:32:58.730Z,22.53
2019-04-23T16:36:08.795Z,22.62
2019-04-23T16:38:52.054Z,22.61
2019-04-23T16:41:42.270Z,22.45
2019-04-23T16:44:39.351Z,22.42
2019-04-23T16:47:21.814Z,22.39
2019-04-23T16:50:13.075Z,22.39
2019-04-23T16:52:59.959Z,22.48
2019-04-23T16:55:55.295Z,22.46
2019-04-23T17:01:22.911Z,22.50
2019-04-23T17:04:19.587Z,22.47
2019-04-23T17:07:03.793Z,22.40
2019-04-23T17:10:00.682Z,22.41
2019-04-23T17:12:47.436Z,22.36
2019-04-23T17:15:34.567Z,22.24
2019-04-23T17:18:26.255Z,22.23
2019-04-23T17:21:24.035Z,22.28
2019-04-23T17:24:09.485Z,22.17
2019-04-23T17:27:11.090Z,22.15
2019-04-23T17:32:28.252Z,22.04
2019-04-23T17:35:30.114Z,21.86
2019-04-23T17:38:42.331Z,21.81
2019-04-23T17:47:08.719Z,21.54
2019-04-23T17:49:59.706Z,21.49
2019-04-23T17:52:47.393Z,21.39
2019-04-23T17:55:34.906Z,21.20
2019-04-23T17:58:24.775Z,21.07
2019-04-23T18:01:20.136Z,20.91
2019-04-23T18:04:23.962Z,20.81
2019-04-23T18:09:51.383Z,20.55
2019-04-23T18:15:21.289Z,20.23
2019-04-23T18:18:10.076Z,20.08
2019-04-23T18:24:38.483Z,19.90
2019-04-23T18:27:23.343Z,19.90
2019-04-23T18:30:26.456Z,19.71
2019-04-23T18:36:19.595Z,19.74
2019-04-23T18:39:12.384Z,19.56
2019-04-23T18:45:00.321Z,19.41
2019-04-23T18:47:47.313Z,19.32
2019-04-23T18:50:48.182Z,19.27
2019-04-23T18:53:32.367Z,19.13
2019-04-23T18:56:31.287Z,19.14
2019-04-23T18:59:24.884Z,19.07
2019-04-23T19:02:31.778Z,19.02
2019-04-23T19:14:27.661Z,18.80
2019-04-23T19:17:35.779Z,18.69
2019-04-23T19:19:55.274Z,18.59
2019-04-23T19:22:55.231Z,18.64
2019-04-23T19:28:44.466Z,18.50
2019-04-23T19:31:28.640Z,18.52
2019-04-23T19:34:21.313Z,18.50
2019-04-23T19:37:15.369Z,18.49
2019-04-23T19:39:55.129Z,18.48
2019-04-23T19:42:44.818Z,18.41
2019-04-23T19:45:40.576Z,18.45
2019-04-23T19:48:25.299Z,18.40
2019-04-23T19:51:09.559Z,18.31
2019-04-23T19:54:09.452Z,18.04
2019-04-23T20:02:38.590Z,17.99
2019-04-23T20:05:13.783Z,17.98
2019-04-23T20:10:54.564Z,18.07
2019-04-23T20:13:52.669Z,18.16
2019-04-23T20:16:48.956Z,18.04
2019-04-23T20:19:30.138Z,18.02
2019-04-23T20:22:16.705Z,18.08
2019-04-23T20:31:45.026Z,18.06
2019-04-23T20:32:05.551Z,18.04
2019-04-23T20:37:06.521Z,17.93
2019-04-23T20:39:52.463Z,17.91
2019-04-23T20:42:36.617Z,17.97
2019-04-23T20:45:35.016Z,17.85
2019-04-23T20:48:16.058Z,17.74
2019-04-23T20:51:00.473Z,17.81
2019-04-23T20:54:02.264Z,17.73
2019-04-23T20:56:55.983Z,17.64
2019-04-23T20:59:45.511Z,17.56
2019-04-23T21:02:54.072Z,17.57
2019-04-23T21:05:27.700Z,17.73
2019-04-23T21:10:55.690Z,17.69
2019-04-23T21:14:10.816Z,17.62
2019-04-23T21:16:41.252Z,17.47
2019-04-23T21:19:42.055Z,17.52
2019-04-23T21:22:18.840Z,17.51
2019-04-23T21:25:08.310Z,17.50
2019-04-23T21:36:49.515Z,17.37
2019-04-23T21:45:56.814Z,17.26
2019-04-23T21:49:01.919Z,17.18
2019-04-23T21:54:25.741Z,17.12
2019-04-23T21:57:11.712Z,17.10
2019-04-23T21:59:59.178Z,16.98
2019-04-23T22:02:54.729Z,16.93
2019-04-23T22:06:10.093Z,16.93
2019-04-23T22:08:28.980Z,16.93
2019-04-23T22:11:42.873Z,16.86
2019-04-23T22:14:10.269Z,16.88
2019-04-23T22:17:04.749Z,16.88
2019-04-23T22:19:55.620Z,16.85
2019-04-23T22:22:51.172Z,16.87
2019-04-23T22:25:31.691Z,16.84
2019-04-23T22:28:20.019Z,16.83
2019-04-23T22:31:12.347Z,16.84
2019-04-23T22:34:04.937Z,16.85
2019-04-23T22:36:48.277Z,16.89
2019-04-23T22:39:31.757Z,16.80
2019-04-23T22:42:41.294Z,16.82
2019-04-23T22:45:27.072Z,16.86
2019-04-23T22:48:04.530Z,16.87
2019-04-23T22:51:04.859Z,16.88
2019-04-23T22:53:41.778Z,16.82
2019-04-23T22:56:35.090Z,16.85
2019-04-23T23:02:35.027Z,16.83
2019-04-23T23:05:37.469Z,16.76
2019-04-23T23:10:56.635Z,16.67
2019-04-23T23:14:01.076Z,16.62
2019-04-23T23:16:27.801Z,16.66
2019-04-23T23:25:06.523Z,16.65
2019-04-23T23:30:52.004Z,16.61
2019-04-23T23:36:20.512Z,16.53
2019-04-23T23:39:22.700Z,16.40
2019-04-23T23:41:57.197Z,16.25
2019-04-23T23:47:28.842Z,16.12
2019-04-23T23:50:50.160Z,16.03
2019-04-23T23:53:23.337Z,15.75
2019-04-23T23:56:10.864Z,15.62
2019-04-23T23:58:58.300Z,15.37
